Time;durP1;ratioP1;P1;durP2;ratioP2;P2;SDS_P1;SDS_P2;PMS_P1;PMS_P2;Temp;Humidity;BMP_temperature;BMP_pressure;BME280_temperature;BME280_humidity;BME280_pressure;Samples;Min_cycle;Max_cycle;Signal;HPM_P1;HPM_P2
2023/02/11 00:01:22;;;;;;;38.17;19.15;;;;;;;;;;4990034;28;20322;-73
2023/02/11 00:03:48;;;;;;;39.22;21.10;;;;;;;;;;4991227;28;20022;-72
2023/02/11 00:06:14;;;;;;;36.55;19.95;;;;;;;;;;4991117;28;20026;-72
2023/02/11 00:08:40;;;;;;;36.15;21.42;;;;;;;;;;4990672;28;20026;-73
2023/02/11 00:11:06;;;;;;;42.33;20.38;;;;;;;;;;4991304;28;20026;-73
2023/02/11 00:13:32;;;;;;;36.53;20.50;;;;;;;;;;4991688;28;20031;-73
2023/02/11 00:15:58;;;;;;;40.05;21.02;;;;;;;;;;4991277;28;20512;-73
2023/02/11 00:18:24;;;;;;;39.47;20.27;;;;;;;;;;4990481;28;20034;-72
2023/02/11 00:20:50;;;;;;;32.75;20.10;;;;;;;;;;4991539;28;20026;-73
2023/02/11 00:23:16;;;;;;;32.88;19.75;;;;;;;;;;4991154;28;20504;-72
2023/02/11 00:25:44;;;;;;;34.78;19.55;;;;;;;;;;4991141;28;20088;-71
2023/02/11 00:28:10;;;;;;;36.40;20.10;;;;;;;;;;4990642;28;20025;-71
2023/02/11 00:30:36;;;;;;;36.85;20.83;;;;;;;;;;4994932;28;20014;-72
2023/02/11 00:33:03;;;;;;;35.85;20.25;;;;;;;;;;4995328;28;20018;-71
2023/02/11 00:35:29;;;;;;;36.40;20.25;;;;;;;;;;4995473;28;20033;-72
2023/02/11 00:37:55;;;;;;;37.75;19.88;;;;;;;;;;4996979;28;20041;-72
2023/02/11 00:40:22;;;;;;;37.92;20.40;;;;;;;;;;5003475;28;20033;-72
2023/02/11 00:42:48;;;;;;;35.92;21.40;;;;;;;;;;5003184;28;20034;-72
2023/02/11 00:47:53;;;;;;;34.35;19.95;;;;;;;;;;4990850;28;20069;-70
2023/02/11 00:50:19;;;;;;;37.95;21.95;;;;;;;;;;4994990;28;20346;-71
2023/02/11 00:52:45;;;;;;;34.28;19.35;;;;;;;;;;4995696;28;20027;-71
2023/02/11 00:55:11;;;;;;;32.83;20.13;;;;;;;;;;4995059;28;20037;-70
2023/02/11 00:57:37;;;;;;;39.20;22.20;;;;;;;;;;4976436;28;20027;-71
2023/02/11 01:00:04;;;;;;;38.15;21.88;;;;;;;;;;4976343;28;20077;-71
2023/02/11 01:02:30;;;;;;;34.25;20.73;;;;;;;;;;4974611;28;20026;-71
2023/02/11 01:04:58;;;;;;;38.25;20.67;;;;;;;;;;4974940;28;20082;-70
2023/02/11 01:07:24;;;;;;;33.15;20.30;;;;;;;;;;4973960;28;20035;-71
2023/02/11 01:09:50;;;;;;;35.75;20.38;;;;;;;;;;4974595;28;20118;-71
2023/02/11 01:12:16;;;;;;;30.77;19.35;;;;;;;;;;4974740;28;20200;-72
2023/02/11 01:14:43;;;;;;;33.65;20.10;;;;;;;;;;4974648;28;20115;-71
2023/02/11 01:17:09;;;;;;;35.25;19.98;;;;;;;;;;4974177;28;20023;-70
2023/02/11 01:19:36;;;;;;;37.28;20.25;;;;;;;;;;4974984;28;20433;-73
2023/02/11 01:22:02;;;;;;;34.38;19.60;;;;;;;;;;4974741;28;20077;-72
2023/02/11 01:24:28;;;;;;;32.45;20.48;;;;;;;;;;4973112;28;20027;-73
2023/02/11 01:26:54;;;;;;;33.22;19.55;;;;;;;;;;4974464;28;20027;-72
2023/02/11 01:29:20;;;;;;;36.05;20.38;;;;;;;;;;4973718;28;20034;-73
2023/02/11 01:31:47;;;;;;;33.95;19.00;;;;;;;;;;4973669;28;20019;-72
2023/02/11 01:34:13;;;;;;;32.17;20.13;;;;;;;;;;4974787;28;20061;-72
2023/02/11 01:36:39;;;;;;;38.00;21.92;;;;;;;;;;4974430;28;20027;-72
2023/02/11 01:39:05;;;;;;;32.58;20.13;;;;;;;;;;4973890;28;20019;-72
2023/02/11 01:41:31;;;;;;;31.65;20.35;;;;;;;;;;4974640;28;20027;-72
2023/02/11 01:43:57;;;;;;;35.25;20.88;;;;;;;;;;4974966;28;20027;-72
2023/02/11 01:46:26;;;;;;;34.17;19.63;;;;;;;;;;4974588;28;20479;-73
2023/02/11 01:48:54;;;;;;;31.75;19.88;;;;;;;;;;4976428;28;20019;-72
2023/02/11 01:51:23;;;;;;;35.38;20.65;;;;;;;;;;4976414;28;20023;-71
2023/02/11 01:59:28;;;;;;;29.10;18.75;;;;;;;;;;4976251;28;20433;-70
2023/02/11 02:01:57;;;;;;;29.35;19.25;;;;;;;;;;4976036;28;20110;-71
2023/02/11 02:04:26;;;;;;;33.08;20.35;;;;;;;;;;4974759;28;20033;-71
2023/02/11 02:06:55;;;;;;;34.80;21.33;;;;;;;;;;4974277;28;20026;-72
2023/02/11 02:09:25;;;;;;;32.65;19.48;;;;;;;;;;4973722;28;20122;-71
2023/02/11 02:11:51;;;;;;;33.65;21.20;;;;;;;;;;4975481;28;20019;-71
2023/02/11 02:14:17;;;;;;;33.58;20.48;;;;;;;;;;4975334;28;20015;-72
2023/02/11 02:16:44;;;;;;;32.58;19.23;;;;;;;;;;4973309;28;20055;-71
2023/02/11 02:19:29;;;;;;;31.08;19.40;;;;;;;;;;4974476;28;20031;-72
2023/02/11 02:22:05;;;;;;;31.85;19.60;;;;;;;;;;4977191;28;20059;-72
2023/02/11 02:24:38;;;;;;;31.70;20.23;;;;;;;;;;4976773;28;20023;-71
2023/02/11 02:27:13;;;;;;;34.92;21.17;;;;;;;;;;4975951;28;20486;-71
2023/02/11 02:29:45;;;;;;;30.98;20.75;;;;;;;;;;4975822;28;20045;-70
2023/02/11 02:32:11;;;;;;;34.88;20.60;;;;;;;;;;4973239;28;20023;-71
2023/02/11 02:34:56;;;;;;;33.40;20.42;;;;;;;;;;4973165;28;20097;-71
2023/02/11 02:37:37;;;;;;;39.15;20.73;;;;;;;;;;4970892;28;20035;-71
2023/02/11 02:40:03;;;;;;;;;;;;;;;;;;4973416;28;20107;-72
2023/02/11 02:42:30;;;;;;;34.90;20.10;;;;;;;;;;4973111;28;20385;-70
2023/02/11 02:44:56;;;;;;;34.15;19.60;;;;;;;;;;4973136;28;20129;-71
2023/02/11 02:47:22;;;;;;;31.17;20.15;;;;;;;;;;4971813;28;20110;-71
2023/02/11 02:49:48;;;;;;;27.95;18.15;;;;;;;;;;4972677;28;20402;-72
2023/02/11 02:52:14;;;;;;;32.08;19.52;;;;;;;;;;4970953;28;20058;-71
2023/02/11 02:54:43;;;;;;;29.48;19.60;;;;;;;;;;4972655;28;20033;-71
2023/02/11 02:57:30;;;;;;;32.35;20.42;;;;;;;;;;4971988;28;20034;-73
2023/02/11 02:59:59;;;;;;;36.55;20.20;;;;;;;;;;4972406;28;20402;-72
2023/02/11 03:02:25;;;;;;;30.98;19.42;;;;;;;;;;4972546;28;20038;-72
2023/02/11 03:04:51;;;;;;;31.48;19.85;;;;;;;;;;4972629;28;20429;-72
2023/02/11 03:07:22;;;;;;;31.75;19.67;;;;;;;;;;4970261;28;20093;-71
2023/02/11 03:09:51;;;;;;;29.45;15.77;;;;;;;;;;4972820;28;20479;-71
2023/02/11 03:12:18;;;;;;;34.03;20.25;;;;;;;;;;4971070;28;20085;-72
2023/02/11 03:14:44;;;;;;;35.40;19.88;;;;;;;;;;4972751;28;20474;-72
2023/02/11 03:17:10;;;;;;;30.33;19.60;;;;;;;;;;4971893;28;20073;-72
2023/02/11 03:19:42;;;;;;;27.83;19.08;;;;;;;;;;4971352;28;20026;-71
2023/02/11 03:22:12;;;;;;;31.25;19.45;;;;;;;;;;4972546;28;20104;-71
2023/02/11 03:24:40;;;;;;;32.38;19.27;;;;;;;;;;4971094;28;20025;-70
2023/02/11 03:27:10;;;;;;;27.80;18.65;;;;;;;;;;4971681;28;20035;-69
2023/02/11 03:29:36;;;;;;;30.55;19.55;;;;;;;;;;4972199;28;20153;-71
2023/02/11 03:32:05;;;;;;;37.72;20.45;;;;;;;;;;4972713;28;20110;-71
2023/02/11 03:34:36;;;;;;;29.92;19.08;;;;;;;;;;4972192;28;20077;-71
2023/02/11 03:37:03;;;;;;;;;;;;;;;;;;4970858;28;20023;-71
2023/02/11 03:39:31;;;;;;;34.17;20.15;;;;;;;;;;4986845;28;19905;-69
2023/02/11 03:41:59;;;;;;;37.92;21.38;;;;;;;;;;4972226;28;20370;-71
2023/02/11 03:44:27;;;;;;;35.85;21.00;;;;;;;;;;4972107;28;20031;-71
2023/02/11 03:46:53;;;;;;;33.88;21.00;;;;;;;;;;4971704;28;20082;-71
2023/02/11 03:49:21;;;;;;;38.25;22.85;;;;;;;;;;4971348;28;20027;-70
2023/02/11 03:51:48;;;;;;;35.47;21.58;;;;;;;;;;4971956;28;20029;-71
2023/02/11 03:54:17;;;;;;;35.45;22.20;;;;;;;;;;4970596;28;20029;-71
2023/02/11 03:56:48;;;;;;;32.80;20.38;;;;;;;;;;4970693;28;20530;-71
2023/02/11 03:59:14;;;;;;;34.28;21.95;;;;;;;;;;4970351;28;20034;-73
2023/02/11 04:01:40;;;;;;;33.80;20.83;;;;;;;;;;4972742;28;20074;-73
2023/02/11 04:04:06;;;;;;;34.40;21.08;;;;;;;;;;4973547;28;20055;-73
2023/02/11 04:06:32;;;;;;;36.28;22.20;;;;;;;;;;4975611;28;20040;-72
2023/02/11 04:08:58;;;;;;;34.63;22.50;;;;;;;;;;4973785;28;20031;-71
2023/02/11 04:11:24;;;;;;;34.80;21.88;;;;;;;;;;4975664;28;20239;-72
2023/02/11 04:13:50;;;;;;;34.15;21.88;;;;;;;;;;4975625;28;20023;-71
2023/02/11 04:16:16;;;;;;;39.92;23.35;;;;;;;;;;4975607;28;20106;-71
2023/02/11 04:18:42;;;;;;;36.58;20.98;;;;;;;;;;4973563;28;20134;-72
2023/02/11 04:21:08;;;;;;;36.58;21.73;;;;;;;;;;4975574;28;20046;-72
2023/02/11 04:23:34;;;;;;;37.65;22.80;;;;;;;;;;4974518;28;20412;-71
2023/02/11 04:26:00;;;;;;;35.95;23.08;;;;;;;;;;4975238;28;20031;-72
2023/02/11 04:28:28;;;;;;;36.85;22.00;;;;;;;;;;4974490;28;20555;-72
2023/02/11 04:30:54;;;;;;;35.83;21.98;;;;;;;;;;4974072;28;20169;-72
2023/02/11 04:33:20;;;;;;;38.33;22.85;;;;;;;;;;4974122;28;20026;-72
2023/02/11 04:35:46;;;;;;;36.55;22.75;;;;;;;;;;4973915;28;20034;-72
2023/02/11 04:38:12;;;;;;;37.17;22.50;;;;;;;;;;4973210;28;20023;-72
2023/02/11 04:40:39;;;;;;;35.45;21.33;;;;;;;;;;4975143;28;20038;-70
2023/02/11 04:43:05;;;;;;;35.97;21.90;;;;;;;;;;4975141;28;20027;-72
2023/02/11 04:45:31;;;;;;;38.75;21.42;;;;;;;;;;4974912;28;20034;-72
2023/02/11 04:47:57;;;;;;;34.78;21.45;;;;;;;;;;4973375;28;20397;-72
2023/02/11 04:50:23;;;;;;;34.17;21.73;;;;;;;;;;4976571;28;20030;-72
2023/02/11 04:52:49;;;;;;;31.17;21.30;;;;;;;;;;4976880;28;20023;-72
2023/02/11 04:55:15;;;;;;;33.95;20.30;;;;;;;;;;4974745;28;20058;-72
2023/02/11 04:57:41;;;;;;;35.22;21.13;;;;;;;;;;4974382;28;20080;-71
2023/02/11 05:00:08;;;;;;;34.28;21.30;;;;;;;;;;4975172;28;20030;-72
2023/02/11 05:02:34;;;;;;;35.60;21.83;;;;;;;;;;4973499;28;20539;-70
2023/02/11 05:05:00;;;;;;;42.42;25.17;;;;;;;;;;4974875;28;20030;-72
2023/02/11 05:07:26;;;;;;;40.42;23.52;;;;;;;;;;4974039;28;20126;-71
2023/02/11 05:09:52;;;;;;;40.58;25.05;;;;;;;;;;4974640;28;20019;-71
2023/02/11 05:12:19;;;;;;;41.90;25.13;;;;;;;;;;4974675;28;20026;-69
2023/02/11 05:14:45;;;;;;;40.03;24.85;;;;;;;;;;4974323;28;20524;-71
2023/02/11 05:17:11;;;;;;;43.40;25.65;;;;;;;;;;4973716;28;20030;-71
2023/02/11 05:19:37;;;;;;;42.53;25.77;;;;;;;;;;4974390;28;20023;-73
2023/02/11 05:22:03;;;;;;;41.78;24.52;;;;;;;;;;4973187;28;20027;-73
2023/02/11 05:24:29;;;;;;;42.13;24.73;;;;;;;;;;4973052;28;20027;-73
2023/02/11 05:26:55;;;;;;;41.30;24.23;;;;;;;;;;4974193;28;20508;-72
2023/02/11 05:29:21;;;;;;;42.75;23.38;;;;;;;;;;4973849;28;20023;-72
2023/02/11 05:31:47;;;;;;;41.67;23.08;;;;;;;;;;4974657;28;20053;-72
2023/02/11 05:34:13;;;;;;;41.65;26.25;;;;;;;;;;4974046;28;20412;-72
2023/02/11 05:36:39;;;;;;;38.70;24.35;;;;;;;;;;4972786;28;20034;-72
2023/02/11 05:39:05;;;;;;;44.88;26.95;;;;;;;;;;4973283;28;20121;-71
2023/02/11 05:41:31;;;;;;;44.03;26.05;;;;;;;;;;4974317;28;20031;-71
2023/02/11 05:43:58;;;;;;;48.97;26.77;;;;;;;;;;4974212;28;20058;-70
2023/02/11 05:46:24;;;;;;;44.47;27.38;;;;;;;;;;4972388;28;20031;-71
2023/02/11 05:48:50;;;;;;;43.88;27.35;;;;;;;;;;4973377;28;20106;-72
2023/02/11 05:51:16;;;;;;;48.65;28.02;;;;;;;;;;4974032;28;20022;-71
2023/02/11 05:53:42;;;;;;;47.42;28.00;;;;;;;;;;4974038;28;20062;-72
2023/02/11 05:56:09;;;;;;;44.55;27.27;;;;;;;;;;4973638;28;20065;-71
2023/02/11 05:58:35;;;;;;;44.85;27.35;;;;;;;;;;4973222;28;20023;-71
2023/02/11 06:01:01;;;;;;;42.42;26.02;;;;;;;;;;4973773;28;20023;-71
2023/02/11 06:03:27;;;;;;;45.70;26.45;;;;;;;;;;4972306;28;20027;-70
2023/02/11 06:05:53;;;;;;;50.13;26.75;;;;;;;;;;4973657;28;20382;-71
2023/02/11 06:08:19;;;;;;;49.10;27.48;;;;;;;;;;4971334;28;20548;-75
2023/02/11 06:10:45;;;;;;;45.33;25.33;;;;;;;;;;4973629;28;20170;-72
2023/02/11 06:13:11;;;;;;;44.95;26.73;;;;;;;;;;4973777;28;20516;-72
2023/02/11 06:15:37;;;;;;;44.22;27.25;;;;;;;;;;4973685;28;20043;-70
2023/02/11 06:18:04;;;;;;;41.38;26.27;;;;;;;;;;4972817;28;20057;-72
2023/02/11 06:20:30;;;;;;;40.15;24.75;;;;;;;;;;4973387;28;20027;-73
2023/02/11 06:22:56;;;;;;;41.72;25.83;;;;;;;;;;4973309;28;20457;-72
2023/02/11 06:25:22;;;;;;;47.80;25.55;;;;;;;;;;4973269;28;20027;-73
2023/02/11 06:27:48;;;;;;;41.45;25.77;;;;;;;;;;4971796;28;20037;-71
2023/02/11 06:30:14;;;;;;;44.25;27.60;;;;;;;;;;4972972;28;20398;-70
2023/02/11 06:32:40;;;;;;;44.75;24.73;;;;;;;;;;4973271;28;20025;-72
2023/02/11 06:35:06;;;;;;;43.53;25.40;;;;;;;;;;4973323;28;20019;-70
2023/02/11 06:37:33;;;;;;;41.60;24.00;;;;;;;;;;4972235;28;20031;-71
2023/02/11 06:39:59;;;;;;;49.00;25.60;;;;;;;;;;4972224;28;20457;-70
2023/02/11 06:42:25;;;;;;;40.72;24.45;;;;;;;;;;4970631;28;20425;-71
2023/02/11 06:44:52;;;;;;;43.00;25.83;;;;;;;;;;4970720;28;20473;-70
2023/02/11 06:47:17;;;;;;;43.78;24.90;;;;;;;;;;4995797;22;20255;-72
2023/02/11 06:49:44;;;;;;;38.67;23.92;;;;;;;;;;4991705;28;20034;-72
2023/02/11 06:52:09;;;;;;;43.58;25.38;;;;;;;;;;4991767;28;20026;-71
2023/02/11 06:54:35;;;;;;;43.40;23.70;;;;;;;;;;4991248;28;20443;-71
2023/02/11 06:57:01;;;;;;;42.80;25.27;;;;;;;;;;4991978;28;20029;-70
2023/02/11 06:59:27;;;;;;;41.97;24.70;;;;;;;;;;4991309;28;20042;-70
2023/02/11 07:01:53;;;;;;;43.55;23.73;;;;;;;;;;4990995;28;20108;-71
2023/02/11 07:04:19;;;;;;;40.17;25.38;;;;;;;;;;4972403;28;20129;-71
2023/02/11 07:06:45;;;;;;;41.80;25.65;;;;;;;;;;4972255;28;20031;-71
2023/02/11 07:09:11;;;;;;;48.55;27.33;;;;;;;;;;4971672;28;20500;-71
2023/02/11 07:11:37;;;;;;;43.83;27.70;;;;;;;;;;4972348;28;20058;-71
2023/02/11 07:14:05;;;;;;;54.05;26.92;;;;;;;;;;4972450;28;20497;-72
2023/02/11 07:16:31;;;;;;;45.65;27.38;;;;;;;;;;4972062;28;20487;-72
2023/02/11 07:18:57;;;;;;;47.40;28.48;;;;;;;;;;4974259;28;20092;-71
2023/02/11 07:21:24;;;;;;;47.35;26.90;;;;;;;;;;4991545;28;20026;-72
2023/02/11 07:23:50;;;;;;;46.28;27.65;;;;;;;;;;4991258;28;20026;-71
2023/02/11 07:26:18;;;;;;;49.40;29.20;;;;;;;;;;4991393;28;20027;-71
2023/02/11 07:28:44;;;;;;;42.72;26.40;;;;;;;;;;4990591;28;20030;-71
2023/02/11 07:31:12;;;;;;;46.83;28.55;;;;;;;;;;4991513;28;20069;-71
2023/02/11 07:33:38;;;;;;;47.17;27.20;;;;;;;;;;4991041;28;20029;-70
2023/02/11 07:36:05;;;;;;;40.90;25.48;;;;;;;;;;4991142;28;20125;-71
2023/02/11 07:38:32;;;;;;;43.65;25.98;;;;;;;;;;4991209;28;20044;-70
2023/02/11 07:41:01;;;;;;;42.28;26.30;;;;;;;;;;4995024;28;20034;-69
2023/02/11 07:43:27;;;;;;;47.00;26.98;;;;;;;;;;5001226;28;20512;-70
2023/02/11 07:45:54;;;;;;;50.47;29.13;;;;;;;;;;4972085;28;20118;-70
2023/02/11 07:48:20;;;;;;;46.95;27.08;;;;;;;;;;4971306;28;20478;-70
2023/02/11 07:50:46;;;;;;;50.70;29.90;;;;;;;;;;4970726;28;20026;-70
2023/02/11 07:53:12;;;;;;;46.35;25.85;;;;;;;;;;4976014;28;20018;-71
2023/02/11 07:55:38;;;;;;;46.25;26.65;;;;;;;;;;4992088;28;20022;-70
2023/02/11 07:58:04;;;;;;;46.72;25.85;;;;;;;;;;4991222;28;20035;-72
2023/02/11 08:00:30;;;;;;;43.58;26.85;;;;;;;;;;4991637;28;20030;-70
2023/02/11 08:02:56;;;;;;;47.65;26.75;;;;;;;;;;4982585;28;20034;-70
2023/02/11 08:05:22;;;;;;;47.47;28.23;;;;;;;;;;4972472;28;20501;-70
2023/02/11 08:07:52;;;;;;;51.70;29.65;;;;;;;;;;4971345;28;20035;-66
2023/02/11 08:10:18;;;;;;;45.42;25.95;;;;;;;;;;4971803;28;20023;-66
2023/02/11 08:12:44;;;;;;;43.97;25.98;;;;;;;;;;4985250;28;20580;-66
2023/02/11 08:15:10;;;;;;;41.75;25.15;;;;;;;;;;4990722;28;20113;-67
2023/02/11 08:17:36;;;;;;;41.42;25.75;;;;;;;;;;4990369;28;20034;-65
2023/02/11 08:20:03;;;;;;;41.97;25.02;;;;;;;;;;4990948;28;20389;-65
2023/02/11 08:22:31;;;;;;;37.63;24.52;;;;;;;;;;4991058;28;20030;-71
2023/02/11 08:24:57;;;;;;;38.50;24.52;;;;;;;;;;4991171;28;20027;-70
2023/02/11 08:27:24;;;;;;;41.90;25.55;;;;;;;;;;4990058;28;20041;-71
2023/02/11 08:29:50;;;;;;;42.05;24.00;;;;;;;;;;4990969;28;20030;-70
2023/02/11 08:32:16;;;;;;;39.47;24.60;;;;;;;;;;4989468;28;20023;-68
2023/02/11 08:34:42;;;;;;;42.97;23.88;;;;;;;;;;4988189;28;20039;-70
2023/02/11 08:37:08;;;;;;;43.65;26.00;;;;;;;;;;4989439;28;20476;-70
2023/02/11 08:39:34;;;;;;;41.65;25.02;;;;;;;;;;4990207;28;20034;-71
2023/02/11 08:42:00;;;;;;;37.50;23.98;;;;;;;;;;4988966;28;20030;-70
2023/02/11 08:44:26;;;;;;;41.60;24.42;;;;;;;;;;4970913;28;20054;-69
2023/02/11 08:46:52;;;;;;;40.03;24.70;;;;;;;;;;4969360;28;20064;-72
2023/02/11 08:49:18;;;;;;;38.10;23.70;;;;;;;;;;4969185;28;20031;-70
2023/02/11 08:51:45;;;;;;;42.42;24.85;;;;;;;;;;4977177;28;20032;-68
2023/02/11 08:54:12;;;;;;;37.20;23.77;;;;;;;;;;4992360;28;20113;-70
2023/02/11 08:56:38;;;;;;;39.67;24.55;;;;;;;;;;4972777;28;20073;-71
2023/02/11 08:59:04;;;;;;;43.35;25.45;;;;;;;;;;4987621;28;20054;-71
2023/02/11 09:01:31;;;;;;;38.60;23.55;;;;;;;;;;4974696;28;20495;-70
2023/02/11 09:03:57;;;;;;;34.85;22.98;;;;;;;;;;4992113;28;20360;-70
2023/02/11 09:06:24;;;;;;;36.63;22.75;;;;;;;;;;4994136;28;20030;-69
2023/02/11 09:08:51;;;;;;;38.00;23.77;;;;;;;;;;4993277;28;20062;-71
2023/02/11 09:11:19;;;;;;;37.28;23.73;;;;;;;;;;4994225;28;20153;-69
2023/02/11 09:13:45;;;;;;;45.20;26.52;;;;;;;;;;4994392;28;20027;-68
2023/02/11 09:16:21;;;;;;;39.97;24.45;;;;;;;;;;4993831;28;20031;-68
2023/02/11 09:18:48;;;;;;;33.40;23.88;;;;;;;;;;4993175;28;20121;-70
2023/02/11 09:21:14;;;;;;;37.70;24.45;;;;;;;;;;4993922;28;20041;-70
2023/02/11 09:23:43;;;;;;;38.90;23.73;;;;;;;;;;4993806;28;20030;-71
2023/02/11 09:26:12;;;;;;;41.47;25.38;;;;;;;;;;4993757;28;20475;-71
2023/02/11 09:28:38;;;;;;;37.33;24.33;;;;;;;;;;4992818;28;20464;-70
2023/02/11 09:31:04;;;;;;;37.83;25.35;;;;;;;;;;4993687;28;20556;-70
2023/02/11 09:33:31;;;;;;;42.63;24.65;;;;;;;;;;4993746;28;20473;-69
2023/02/11 09:36:00;;;;;;;37.00;23.35;;;;;;;;;;4993880;28;20477;-70
2023/02/11 09:38:26;;;;;;;35.70;22.27;;;;;;;;;;4993369;28;20049;-68
2023/02/11 09:40:52;;;;;;;38.08;23.73;;;;;;;;;;4994176;28;20026;-68
2023/02/11 09:43:30;;;;;;;42.00;26.20;;;;;;;;;;4993920;28;20027;-70
2023/02/11 09:45:57;;;;;;;38.13;23.58;;;;;;;;;;4993926;28;20037;-69
2023/02/11 09:48:23;;;;;;;39.38;24.65;;;;;;;;;;4992368;28;20172;-67
2023/02/11 09:51:00;;;;;;;40.53;25.00;;;;;;;;;;4992835;28;20022;-67
2023/02/11 09:53:27;;;;;;;50.35;25.38;;;;;;;;;;4992668;28;20026;-69
2023/02/11 09:55:58;;;;;;;39.30;24.63;;;;;;;;;;4993239;28;20547;-69
2023/02/11 09:58:35;;;;;;;37.40;24.30;;;;;;;;;;4992614;28;20463;-69
2023/02/11 10:01:13;;;;;;;38.65;25.70;;;;;;;;;;4992343;28;20030;-70
2023/02/11 10:03:51;;;;;;;39.55;24.73;;;;;;;;;;4992843;28;20026;-70
2023/02/11 10:06:18;;;;;;;42.25;25.17;;;;;;;;;;4993001;28;20034;-70
2023/02/11 10:08:53;;;;;;;38.10;24.10;;;;;;;;;;4990958;28;20033;-69
2023/02/11 10:11:22;;;;;;;37.13;25.42;;;;;;;;;;4991829;28;20085;-70
2023/02/11 10:14:10;;;;;;;45.75;26.08;;;;;;;;;;4991822;28;20022;-68
2023/02/11 10:16:53;;;;;;;39.13;24.58;;;;;;;;;;4991512;28;20022;-68
2023/02/11 10:19:26;;;;;;;40.47;24.95;;;;;;;;;;4989533;28;20381;-68
2023/02/11 10:21:55;;;;;;;46.90;24.52;;;;;;;;;;4992145;28;20393;-70
2023/02/11 10:24:21;;;;;;;41.15;23.55;;;;;;;;;;4992742;28;20101;-69
2023/02/11 10:26:47;;;;;;;41.50;25.15;;;;;;;;;;4992424;28;20038;-67
2023/02/11 10:29:22;;;;;;;40.47;25.27;;;;;;;;;;4991760;28;20030;-68
2023/02/11 10:31:50;;;;;;;37.95;23.15;;;;;;;;;;4992453;28;20034;-68
2023/02/11 10:34:16;;;;;;;34.35;22.08;;;;;;;;;;4992740;28;20021;-68
2023/02/11 10:36:43;;;;;;;33.40;23.42;;;;;;;;;;4990973;28;20022;-68
2023/02/11 10:39:20;;;;;;;40.60;24.05;;;;;;;;;;4991748;28;20499;-69
2023/02/11 10:41:48;;;;;;;39.72;23.98;;;;;;;;;;4992517;28;20030;-71
2023/02/11 10:44:27;;;;;;;40.22;21.85;;;;;;;;;;4992427;28;20029;-67
2023/02/11 10:46:53;;;;;;;37.72;23.60;;;;;;;;;;4991225;28;20034;-70
2023/02/11 10:49:37;;;;;;;39.45;23.75;;;;;;;;;;4990540;28;20030;-70
2023/02/11 10:52:19;;;;;;;35.05;23.17;;;;;;;;;;4992347;28;20023;-71
2023/02/11 10:55:01;;;;;;;39.08;22.88;;;;;;;;;;4992467;28;20041;-68
2023/02/11 10:57:29;;;;;;;36.00;23.58;;;;;;;;;;4992838;28;20030;-70
2023/02/11 11:00:04;;;;;;;35.80;22.85;;;;;;;;;;5000862;28;20026;-68
2023/02/11 11:02:33;;;;;;;40.30;24.42;;;;;;;;;;4995272;28;20039;-71
2023/02/11 11:05:01;;;;;;;34.60;22.67;;;;;;;;;;4980308;28;20023;-70
2023/02/11 11:07:31;;;;;;;40.08;25.25;;;;;;;;;;4973294;28;20035;-69
2023/02/11 11:10:01;;;;;;;38.47;23.00;;;;;;;;;;4972980;28;20023;-70
2023/02/11 11:12:29;;;;;;;38.90;25.38;;;;;;;;;;4972287;28;20568;-69
2023/02/11 11:14:59;;;;;;;40.85;23.90;;;;;;;;;;4972731;28;20022;-69
2023/02/11 11:17:28;;;;;;;36.72;23.10;;;;;;;;;;4971739;28;20382;-69
2023/02/11 11:19:55;;;;;;;38.30;23.73;;;;;;;;;;4971893;28;20041;-69
2023/02/11 11:22:21;;;;;;;39.70;23.52;;;;;;;;;;4971301;28;20037;-68
2023/02/11 11:24:54;;;;;;;34.45;22.73;;;;;;;;;;4971550;28;20113;-70
2023/02/11 11:27:22;;;;;;;37.38;22.95;;;;;;;;;;4971310;28;20023;-67
2023/02/11 11:29:53;;;;;;;37.70;23.20;;;;;;;;;;4971854;28;20030;-71
2023/02/11 11:32:27;;;;;;;36.43;22.13;;;;;;;;;;4973035;28;20041;-70
2023/02/11 11:34:55;;;;;;;34.05;22.67;;;;;;;;;;4989068;28;20041;-68
2023/02/11 11:37:24;;;;;;;31.05;21.83;;;;;;;;;;4988839;28;20028;-70
2023/02/11 11:39:58;;;;;;;34.75;23.52;;;;;;;;;;4990548;28;20072;-73
2023/02/11 11:42:26;;;;;;;33.20;22.83;;;;;;;;;;4986460;28;20433;-69
2023/02/11 11:44:57;;;;;;;39.63;24.15;;;;;;;;;;4991448;28;20105;-72
2023/02/11 11:47:43;;;;;;;35.20;20.98;;;;;;;;;;4989935;28;20031;-70
2023/02/11 11:50:26;;;;;;;34.30;22.23;;;;;;;;;;4990977;28;20027;-71
2023/02/11 11:52:52;;;;;;;36.38;22.23;;;;;;;;;;4991011;28;20018;-70
2023/02/11 11:55:24;;;;;;;38.22;22.20;;;;;;;;;;4984134;28;20463;-70
2023/02/11 11:57:50;;;;;;;36.90;22.70;;;;;;;;;;4990462;28;20038;-71
2023/02/11 12:00:18;;;;;;;33.35;21.80;;;;;;;;;;4991371;28;20113;-71
2023/02/11 12:03:03;;;;;;;33.78;21.48;;;;;;;;;;4980243;28;20035;-71
2023/02/11 12:05:38;;;;;;;39.03;23.40;;;;;;;;;;4971462;28;20434;-70
2023/02/11 12:08:30;;;;;;;30.23;19.13;;;;;;;;;;4970908;28;20062;-72
2023/02/11 12:11:16;;;;;;;35.03;21.10;;;;;;;;;;4975643;28;20369;-72
2023/02/11 12:14:05;;;;;;;35.28;21.50;;;;;;;;;;4991306;28;20022;-72
2023/02/11 12:16:44;;;;;;;41.40;23.50;;;;;;;;;;4990945;28;20022;-72
2023/02/11 12:19:13;;;;;;;35.00;22.33;;;;;;;;;;4971851;28;20023;-72
2023/02/11 12:21:59;;;;;;;33.47;22.52;;;;;;;;;;4971519;28;20019;-73
2023/02/11 12:24:44;;;;;;;30.02;20.50;;;;;;;;;;4967729;28;20035;-72
2023/02/11 12:27:18;;;;;;;32.63;21.35;;;;;;;;;;4988489;28;20030;-71
2023/02/11 12:29:46;;;;;;;33.55;22.52;;;;;;;;;;4994965;28;20034;-71
2023/02/11 12:32:32;;;;;;;36.75;22.33;;;;;;;;;;4994835;28;20026;-72
2023/02/11 12:35:14;;;;;;;36.65;23.20;;;;;;;;;;4993340;28;20026;-72
2023/02/11 12:38:07;;;;;;;39.00;23.65;;;;;;;;;;4993882;28;20034;-72
2023/02/11 12:40:57;;;;;;;40.08;23.42;;;;;;;;;;4994673;28;20023;-71
2023/02/11 12:43:25;;;;;;;36.78;21.60;;;;;;;;;;4994808;28;20599;-70
2023/02/11 12:46:00;;;;;;;33.45;22.55;;;;;;;;;;4994697;28;20057;-72
2023/02/11 12:48:29;;;;;;;35.08;22.58;;;;;;;;;;5000941;22;20057;-70
2023/02/11 12:51:14;;;;;;;36.85;23.35;;;;;;;;;;4975294;28;20085;-72
2023/02/11 12:53:40;;;;;;;34.05;21.55;;;;;;;;;;4971462;28;20536;-72
2023/02/11 12:56:12;;;;;;;36.60;23.80;;;;;;;;;;4974684;28;20014;-72
2023/02/11 12:58:38;;;;;;;37.05;22.58;;;;;;;;;;4974012;28;20077;-69
2023/02/11 13:01:07;;;;;;;33.10;22.45;;;;;;;;;;4974629;28;20023;-71
2023/02/11 13:03:33;;;;;;;34.92;20.25;;;;;;;;;;4973842;28;20052;-72
2023/02/11 13:06:03;;;;;;;33.45;22.60;;;;;;;;;;4975720;28;20027;-71
2023/02/11 13:08:32;;;;;;;35.90;23.05;;;;;;;;;;4973777;28;20111;-71
2023/02/11 13:11:00;;;;;;;36.15;23.10;;;;;;;;;;4974628;28;20118;-71
2023/02/11 13:13:31;;;;;;;36.47;21.33;;;;;;;;;;4973259;28;20113;-72
2023/02/11 13:16:06;;;;;;;36.03;22.75;;;;;;;;;;4973080;28;20019;-72
2023/02/11 13:18:35;;;;;;;38.33;22.30;;;;;;;;;;4973747;28;20027;-72
2023/02/11 13:21:31;;;;;;;33.90;22.08;;;;;;;;;;4969537;28;20022;-72
2023/02/11 13:24:01;;;;;;;35.13;22.23;;;;;;;;;;4969792;28;20070;-73
2023/02/11 13:26:36;;;;;;;35.42;22.52;;;;;;;;;;4973948;28;20023;-71
2023/02/11 13:29:02;;;;;;;31.27;20.88;;;;;;;;;;4973494;28;20374;-70
2023/02/11 13:31:28;;;;;;;34.15;21.33;;;;;;;;;;4974209;28;20030;-71
2023/02/11 13:33:54;;;;;;;27.92;20.17;;;;;;;;;;4974277;28;20023;-70
2023/02/11 13:36:25;;;;;;;33.22;21.15;;;;;;;;;;4974475;28;20425;-70
2023/02/11 13:38:52;;;;;;;34.33;21.70;;;;;;;;;;4972825;28;20300;-70
2023/02/11 13:41:23;;;;;;;38.75;21.02;;;;;;;;;;4973872;28;20037;-70
2023/02/11 13:43:58;;;;;;;31.27;20.63;;;;;;;;;;4974089;28;20109;-71
2023/02/11 13:46:25;;;;;;;33.42;21.10;;;;;;;;;;4973859;28;20026;-69
2023/02/11 13:48:52;;;;;;;32.25;19.52;;;;;;;;;;4972856;28;20386;-72
2023/02/11 13:51:34;;;;;;;34.88;21.05;;;;;;;;;;4973528;28;20082;-72
2023/02/11 13:54:00;;;;;;;31.58;21.00;;;;;;;;;;4973747;28;20465;-70
2023/02/11 13:56:31;;;;;;;36.00;21.40;;;;;;;;;;4973936;28;20029;-71
2023/02/11 13:58:58;;;;;;;33.67;20.45;;;;;;;;;;4973278;28;20413;-71
2023/02/11 14:01:40;;;;;;;34.90;21.15;;;;;;;;;;4972279;28;20027;-71
2023/02/11 14:10:29;;;;;;;35.33;21.60;;;;;;;;;;4973339;28;20038;-71
2023/02/11 14:13:18;;;;;;;34.45;22.20;;;;;;;;;;4973592;28;20442;-70
2023/02/11 14:15:45;;;;;;;40.05;23.45;;;;;;;;;;4967891;28;20509;-72
2023/02/11 14:18:40;;;;;;;36.15;21.83;;;;;;;;;;4972379;28;20038;-71
2023/02/11 14:21:12;;;;;;;34.17;22.02;;;;;;;;;;4964665;28;20039;-70
2023/02/11 14:23:37;;;;;;;;;;;;;;;;;;4973632;28;20114;-70
2023/02/11 14:26:22;;;;;;;29.90;20.75;;;;;;;;;;4973215;28;19942;-72
2023/02/11 14:28:54;;;;;;;33.20;21.40;;;;;;;;;;4972171;28;20027;-69
2023/02/11 14:31:25;;;;;;;33.90;21.88;;;;;;;;;;4973245;28;20026;-70
2023/02/11 14:33:57;;;;;;;30.23;19.27;;;;;;;;;;4973144;28;20110;-70
2023/02/11 14:36:42;;;;;;;33.85;20.58;;;;;;;;;;4973304;28;20470;-69
2023/02/11 14:39:11;;;;;;;30.45;20.23;;;;;;;;;;4971052;28;20031;-70
2023/02/11 14:41:42;;;;;;;30.20;20.48;;;;;;;;;;4973430;28;20511;-70
2023/02/11 14:44:13;;;;;;;34.72;22.60;;;;;;;;;;4971399;28;20033;-69